Nokomis, Illinois
Current Conditions -  °F | °C
As of 12:55 AM on Monday 22 Dec 2014 (Local Time) from KTAZ Reporting Station
Overcast Overcast  
Wind Chill: 28°   Ceiling: 6000
Heat Index: 36°   Visibility: 10mi
Dew Point: 30°   Wind: 12mph
Humidity: 81%   Direction: 140°SE
Pressure: 29.95"   Gusts: NA
Location:  39.3°N, 89.29°W
Report Text: KTAZ 220655Z AUTO 14010KT 10SM OVC060 02/M01 A2995 RMK AO2
Loading
Personal Weather Stations






























Interactive Weather Map New forecast layout! Learn more

10-Day Weather Forecast

Advertisements
Track Severe Weather on mobile